createdAt,value
2019-02-26T00:00:52.018Z,26.03
2019-02-26T00:03:23.913Z,28.32
2019-02-26T00:05:54.274Z,23.13
2019-02-26T00:08:24.611Z,25.48
2019-02-26T00:10:56.772Z,27.47
2019-02-26T00:13:27.238Z,25.77
2019-02-26T00:15:57.209Z,30.43
2019-02-26T00:18:26.689Z,28.20
2019-02-26T00:20:58.512Z,24.83
2019-02-26T00:23:28.038Z,26.90
2019-02-26T00:25:58.880Z,25.23
2019-02-26T00:28:28.392Z,25.47
2019-02-26T00:30:59.507Z,28.27
2019-02-26T00:33:29.143Z,25.60
2019-02-26T00:35:58.862Z,26.57
2019-02-26T00:38:27.562Z,30.53
2019-02-26T00:40:57.809Z,25.47
2019-02-26T00:43:27.912Z,27.97
2019-02-26T00:45:58.268Z,27.57
2019-02-26T00:48:27.259Z,26.53
2019-02-26T00:50:56.593Z,29.30
2019-02-26T00:53:28.319Z,32.23
2019-02-26T00:55:58.628Z,27.40
2019-02-26T00:58:27.193Z,27.63
2019-02-26T01:00:55.904Z,27.03
2019-02-26T01:03:24.700Z,26.10
2019-02-26T01:05:54.547Z,29.33
2019-02-26T01:08:23.286Z,22.70
2019-02-26T01:10:52.052Z,25.00
2019-02-26T01:13:22.507Z,27.13
2019-02-26T01:15:51.191Z,21.33
2019-02-26T01:18:22.056Z,35.05
2019-02-26T01:20:52.270Z,27.10
2019-02-26T01:23:22.178Z,31.42
2019-02-26T01:25:54.197Z,26.60
2019-02-26T01:28:22.606Z,28.27
2019-02-26T01:30:55.527Z,27.00
2019-02-26T01:33:24.364Z,20.40
2019-02-26T01:35:53.449Z,27.27
2019-02-26T01:38:23.790Z,28.77
2019-02-26T01:40:54.145Z,24.73
2019-02-26T01:43:22.849Z,26.07
2019-02-26T01:45:54.959Z,27.87
2019-02-26T01:48:21.951Z,26.40
2019-02-26T01:50:52.218Z,26.83
2019-02-26T01:53:21.956Z,31.60
2019-02-26T01:55:52.636Z,28.40
2019-02-26T01:58:21.353Z,25.35
2019-02-26T02:00:50.058Z,26.77
2019-02-26T02:03:20.860Z,29.83
2019-02-26T02:05:50.288Z,29.95
2019-02-26T02:08:20.811Z,26.33
2019-02-26T02:10:53.638Z,30.93
2019-02-26T02:13:20.632Z,25.70
2019-02-26T02:15:49.253Z,30.40
2019-02-26T02:18:20.135Z,27.70
2019-02-26T02:20:48.243Z,28.20
2019-02-26T02:23:18.866Z,29.00
2019-02-26T02:25:47.292Z,35.73
2019-02-26T02:28:16.682Z,22.00
2019-02-26T02:30:46.452Z,27.67
2019-02-26T02:33:19.616Z,22.70
2019-02-26T02:35:45.708Z,22.33
2019-02-26T02:38:19.524Z,20.95
2019-02-26T02:40:46.303Z,25.37
2019-02-26T02:43:17.540Z,25.40
2019-02-26T02:45:47.477Z,28.17
2019-02-26T02:48:15.956Z,20.02
2019-02-26T02:50:44.627Z,21.63
2019-02-26T02:53:13.317Z,23.63
2019-02-26T02:55:44.269Z,20.37
2019-02-26T02:58:15.853Z,26.82
2019-02-26T03:00:43.611Z,27.10
2019-02-26T03:03:12.129Z,29.73
2019-02-26T03:05:43.205Z,23.37
2019-02-26T03:08:13.413Z,21.30
2019-02-26T03:10:43.059Z,26.73
2019-02-26T03:13:11.971Z,24.15
2019-02-26T03:15:40.746Z,27.30
2019-02-26T03:18:11.998Z,23.17
2019-02-26T03:20:40.442Z,27.90
2019-02-26T03:23:12.345Z,25.07
2019-02-26T03:25:41.594Z,28.27
2019-02-26T03:28:10.383Z,27.42
2019-02-26T03:30:44.043Z,25.17
2019-02-26T03:33:09.396Z,27.30
2019-02-26T03:35:38.114Z,29.97
2019-02-26T03:38:06.813Z,23.57
2019-02-26T03:40:36.109Z,23.70
2019-02-26T03:43:07.599Z,26.53
2019-02-26T03:45:35.889Z,30.67
2019-02-26T03:48:05.319Z,28.15
2019-02-26T03:50:34.022Z,26.07
2019-02-26T03:53:02.775Z,26.23
2019-02-26T03:55:33.608Z,23.30
2019-02-26T03:58:02.304Z,25.20
2019-02-26T04:00:34.605Z,29.70
2019-02-26T04:03:03.512Z,21.40
2019-02-26T04:05:32.826Z,28.83
2019-02-26T04:08:03.706Z,21.50
2019-02-26T04:10:31.867Z,21.30
2019-02-26T04:13:00.509Z,30.60
2019-02-26T04:15:31.040Z,27.10
2019-02-26T04:17:59.582Z,27.97
2019-02-26T04:20:28.324Z,29.83
2019-02-26T04:22:57.214Z,30.70
2019-02-26T04:25:52.094Z,29.80
2019-02-26T04:28:47.424Z,27.42
2019-02-26T04:31:27.671Z,35.27
2019-02-26T04:34:01.909Z,38.03
2019-02-26T04:36:34.372Z,34.30
2019-02-26T04:39:25.069Z,33.13
2019-02-26T04:42:06.230Z,29.63
2019-02-26T04:44:58.189Z,32.63
2019-02-26T04:47:30.849Z,34.90
2019-02-26T04:50:00.483Z,33.88
2019-02-26T04:52:30.119Z,29.37
2019-02-26T04:54:59.786Z,30.37
2019-02-26T04:57:28.516Z,27.03
2019-02-26T04:59:58.998Z,29.70
2019-02-26T05:02:27.644Z,34.60
2019-02-26T05:04:58.588Z,37.33
2019-02-26T05:07:27.284Z,33.30
2019-02-26T05:09:58.782Z,34.60
2019-02-26T05:12:30.346Z,31.27
2019-02-26T05:14:57.642Z,34.30
2019-02-26T05:17:27.913Z,25.60
2019-02-26T05:19:56.808Z,26.00
2019-02-26T05:22:27.676Z,27.10
2019-02-26T05:24:55.897Z,35.87
2019-02-26T05:27:25.088Z,31.43
2019-02-26T05:29:54.751Z,36.00
2019-02-26T05:32:27.002Z,38.60
2019-02-26T05:34:54.807Z,38.67
2019-02-26T05:37:23.581Z,37.67
2019-02-26T05:39:54.639Z,33.70
2019-02-26T05:42:22.733Z,29.97
2019-02-26T05:44:53.838Z,29.60
2019-02-26T05:47:23.928Z,41.42
2019-02-26T05:49:52.107Z,39.63
2019-02-26T05:52:21.906Z,32.50
2019-02-26T05:54:52.708Z,40.23
2019-02-26T05:57:29.164Z,28.83
2019-02-26T05:59:52.813Z,37.60
2019-02-26T06:02:23.951Z,36.25
2019-02-26T06:04:52.451Z,34.18
2019-02-26T06:07:24.091Z,36.05
2019-02-26T06:09:55.717Z,27.33
2019-02-26T06:12:22.272Z,32.60
2019-02-26T06:14:51.471Z,37.43
2019-02-26T06:17:20.501Z,46.40
2019-02-26T06:19:51.012Z,40.57
2019-02-26T06:22:21.394Z,41.00
2019-02-26T06:24:50.193Z,34.93
2019-02-26T06:27:22.034Z,36.80
2019-02-26T06:29:52.816Z,31.30
2019-02-26T06:32:19.807Z,30.37
2019-02-26T06:34:48.370Z,26.70
2019-02-26T06:37:24.446Z,24.77
2019-02-26T06:39:55.699Z,34.20
2019-02-26T06:42:23.651Z,29.60
2019-02-26T06:44:52.509Z,26.10
2019-02-26T06:47:23.358Z,23.60
2019-02-26T06:49:52.702Z,19.93
2019-02-26T06:52:21.752Z,31.43
2019-02-26T06:54:54.766Z,25.97
2019-02-26T06:57:20.780Z,24.43
2019-02-26T06:59:50.932Z,26.90
2019-02-26T07:02:19.974Z,26.80
2019-02-26T07:04:48.608Z,21.07
2019-02-26T07:07:17.347Z,29.23
2019-02-26T07:09:46.053Z,28.33
2019-02-26T07:12:16.875Z,32.53
2019-02-26T07:14:46.427Z,29.67
2019-02-26T07:17:15.531Z,26.85
2019-02-26T07:19:44.141Z,23.47
2019-02-26T07:22:13.502Z,27.75
2019-02-26T07:24:44.556Z,26.00
2019-02-26T07:27:13.929Z,28.13
2019-02-26T07:29:45.718Z,21.23
2019-02-26T07:32:14.825Z,21.60
2019-02-26T07:34:45.272Z,15.00
2019-02-26T07:37:15.832Z,17.50
2019-02-26T07:39:46.722Z,22.93
2019-02-26T07:42:18.337Z,18.83
2019-02-26T07:44:45.434Z,19.83
2019-02-26T07:47:14.135Z,21.37
2019-02-26T07:49:42.724Z,25.47
2019-02-26T07:52:11.405Z,21.48
2019-02-26T07:54:42.223Z,26.80
2019-02-26T07:57:10.526Z,23.23
2019-02-26T07:59:40.417Z,21.20
2019-02-26T08:02:11.351Z,23.30
2019-02-26T08:04:41.789Z,23.37
2019-02-26T08:07:11.120Z,23.27
2019-02-26T08:09:39.795Z,24.87
2019-02-26T08:12:10.800Z,26.30
2019-02-26T08:14:41.049Z,32.63
2019-02-26T08:17:09.318Z,27.35
2019-02-26T08:19:39.886Z,28.70
2019-02-26T08:22:08.332Z,30.63
2019-02-26T08:24:37.042Z,28.53
2019-02-26T08:27:06.506Z,31.40
2019-02-26T08:29:36.262Z,33.97
2019-02-26T08:32:05.340Z,32.15
2019-02-26T08:34:34.034Z,26.70
2019-02-26T08:37:02.904Z,32.63
2019-02-26T08:39:31.623Z,33.20
2019-02-26T08:42:10.157Z,27.40
2019-02-26T08:44:38.815Z,29.90
2019-02-26T08:47:11.151Z,28.47
2019-02-26T08:49:40.109Z,33.67
2019-02-26T08:52:08.383Z,30.40
2019-02-26T08:54:37.014Z,31.27
2019-02-26T08:57:05.661Z,32.73
2019-02-26T08:59:35.054Z,38.33
2019-02-26T09:02:03.794Z,33.20
2019-02-26T09:04:32.415Z,46.40
2019-02-26T09:07:02.110Z,35.10
2019-02-26T09:09:32.838Z,33.53
2019-02-26T09:12:03.234Z,32.75
2019-02-26T09:14:37.307Z,35.60
2019-02-26T09:17:04.566Z,39.43
2019-02-26T09:19:35.506Z,34.20
2019-02-26T09:22:03.812Z,36.50
2019-02-26T09:24:32.503Z,38.93
2019-02-26T09:27:02.697Z,39.43
2019-02-26T09:29:31.623Z,35.97
2019-02-26T09:32:00.253Z,40.07
2019-02-26T09:34:31.566Z,34.80
2019-02-26T09:37:01.176Z,31.80
2019-02-26T09:39:31.897Z,33.50
2019-02-26T09:42:02.239Z,31.50
2019-02-26T09:44:31.490Z,33.10
2019-02-26T09:47:04.442Z,29.70
2019-02-26T09:49:33.722Z,31.30
2019-02-26T09:52:03.831Z,35.57
2019-02-26T09:54:32.377Z,32.57
2019-02-26T09:57:02.704Z,34.00
2019-02-26T09:59:33.535Z,35.10
2019-02-26T10:02:04.082Z,32.43
2019-02-26T10:04:32.264Z,36.17
2019-02-26T10:07:02.273Z,33.70
2019-02-26T10:09:32.988Z,35.47
2019-02-26T10:12:02.771Z,34.40
2019-02-26T10:14:33.512Z,35.60
2019-02-26T10:17:02.718Z,34.80
2019-02-26T10:19:33.231Z,34.60
2019-02-26T10:22:03.538Z,35.97
2019-02-26T10:24:34.367Z,35.77
2019-02-26T10:27:05.400Z,38.90
2019-02-26T10:29:36.643Z,30.90
2019-02-26T10:32:03.518Z,33.33
2019-02-26T10:34:32.212Z,31.33
2019-02-26T10:37:00.864Z,38.13
2019-02-26T10:39:29.586Z,33.60
2019-02-26T10:42:01.979Z,36.83
2019-02-26T10:44:28.665Z,38.27
2019-02-26T10:46:58.236Z,29.27
2019-02-26T10:49:28.803Z,28.97
2019-02-26T10:51:58.568Z,29.27
2019-02-26T10:54:30.923Z,29.60
2019-02-26T10:57:00.142Z,28.20
2019-02-26T10:59:28.040Z,30.65
2019-02-26T11:01:58.580Z,31.47
2019-02-26T11:04:34.475Z,31.48
2019-02-26T11:06:59.396Z,31.50
2019-02-26T11:09:29.887Z,29.43
2019-02-26T11:12:00.809Z,29.33
2019-02-26T11:14:30.939Z,30.60
2019-02-26T11:16:59.272Z,29.63
2019-02-26T11:19:33.026Z,28.10
2019-02-26T11:22:00.862Z,35.40
2019-02-26T11:24:30.849Z,26.53
2019-02-26T11:26:59.087Z,28.60
2019-02-26T11:29:28.543Z,30.07
2019-02-26T11:31:58.310Z,30.23
2019-02-26T11:34:28.694Z,31.20
2019-02-26T11:36:58.576Z,28.90
2019-02-26T11:39:27.834Z,31.97
2019-02-26T11:41:58.639Z,32.23
2019-02-26T11:44:27.737Z,29.00
2019-02-26T11:46:57.034Z,30.33
2019-02-26T11:49:25.841Z,29.03
2019-02-26T11:51:54.623Z,29.83
2019-02-26T11:54:23.419Z,35.87
2019-02-26T11:56:52.607Z,34.47
2019-02-26T11:59:21.711Z,27.82
2019-02-26T12:01:50.442Z,38.33
2019-02-26T12:04:19.097Z,28.20
2019-02-26T12:06:47.741Z,28.80
2019-02-26T12:09:16.454Z,30.75
2019-02-26T12:11:45.115Z,30.30
2019-02-26T12:14:16.407Z,33.37
2019-02-26T12:16:44.252Z,32.57
2019-02-26T12:19:12.889Z,31.07
2019-02-26T12:21:41.543Z,31.60
2019-02-26T12:24:12.567Z,27.17
2019-02-26T12:26:42.307Z,33.90
2019-02-26T12:29:11.152Z,32.10
2019-02-26T12:31:39.816Z,28.33
2019-02-26T12:34:11.621Z,27.63
2019-02-26T12:36:38.933Z,30.93
2019-02-26T12:39:09.242Z,29.10
2019-02-26T12:41:39.765Z,33.33
2019-02-26T12:44:11.433Z,30.60
2019-02-26T12:46:38.821Z,29.03
2019-02-26T12:49:09.370Z,30.47
2019-02-26T12:51:37.912Z,25.93
2019-02-26T12:54:09.299Z,23.50
2019-02-26T12:56:37.467Z,25.25
2019-02-26T12:59:07.582Z,26.00
2019-02-26T13:01:39.755Z,28.63
2019-02-26T13:04:09.618Z,25.27
2019-02-26T13:06:41.007Z,23.17
2019-02-26T13:09:09.588Z,22.97
2019-02-26T13:11:39.753Z,23.53
2019-02-26T13:14:09.199Z,23.67
2019-02-26T13:16:42.486Z,28.07
2019-02-26T13:19:13.794Z,24.85
2019-02-26T13:21:44.950Z,25.77
2019-02-26T13:24:21.114Z,24.72
2019-02-26T13:26:54.347Z,22.67
2019-02-26T13:29:26.562Z,19.65
2019-02-26T13:32:00.833Z,24.23
2019-02-26T13:34:34.633Z,20.33
2019-02-26T13:37:09.344Z,21.60
2019-02-26T13:39:45.448Z,25.37
2019-02-26T13:42:19.158Z,22.00
2019-02-26T13:44:45.927Z,27.83
2019-02-26T13:47:14.702Z,21.60
2019-02-26T13:49:44.187Z,21.87
2019-02-26T13:52:19.066Z,22.30
2019-02-26T13:54:49.887Z,24.87
2019-02-26T13:57:21.239Z,23.20
2019-02-26T13:59:50.161Z,22.98
2019-02-26T14:02:18.940Z,24.83
2019-02-26T14:04:47.657Z,22.50
2019-02-26T14:07:16.515Z,24.43
2019-02-26T14:09:45.215Z,22.47
2019-02-26T14:12:14.120Z,19.97
2019-02-26T14:14:42.900Z,19.53
2019-02-26T14:17:11.548Z,18.80
2019-02-26T14:19:40.271Z,17.60
2019-02-26T14:22:08.968Z,16.00
2019-02-26T14:24:37.947Z,21.20
2019-02-26T14:27:07.349Z,18.90
2019-02-26T14:29:36.134Z,16.83
2019-02-26T14:32:05.034Z,19.90
2019-02-26T14:34:33.820Z,20.53
2019-02-26T14:37:02.574Z,18.13
2019-02-26T14:39:31.309Z,18.77
2019-02-26T14:41:59.974Z,19.80
2019-02-26T14:44:28.713Z,17.70
2019-02-26T14:46:57.370Z,16.37
2019-02-26T14:49:26.149Z,18.53
2019-02-26T14:51:55.067Z,18.27
2019-02-26T14:54:23.690Z,16.70
2019-02-26T14:56:52.329Z,20.77
2019-02-26T14:59:21.066Z,20.90
2019-02-26T15:01:49.701Z,18.50
2019-02-26T15:04:18.379Z,19.83
2019-02-26T15:06:47.054Z,20.40
2019-02-26T15:09:15.810Z,19.20
2019-02-26T15:11:44.452Z,21.50
2019-02-26T15:14:13.319Z,20.00
2019-02-26T15:16:41.969Z,21.50
2019-02-26T15:19:10.613Z,33.33
2019-02-26T15:21:39.330Z,18.87
2019-02-26T15:24:08.318Z,16.77
2019-02-26T15:26:36.968Z,17.63
2019-02-26T15:29:05.663Z,19.90
2019-02-26T15:31:34.417Z,19.13
2019-02-26T15:34:03.277Z,22.23
2019-02-26T15:36:32.254Z,24.30
2019-02-26T15:39:00.939Z,19.53
2019-02-26T15:41:29.759Z,22.70
2019-02-26T15:43:58.480Z,19.03
2019-02-26T15:46:28.580Z,23.90
2019-02-26T15:48:57.594Z,23.67
2019-02-26T15:51:26.343Z,25.97
2019-02-26T15:53:55.566Z,23.90
2019-02-26T15:56:25.357Z,24.90
2019-02-26T15:58:54.013Z,24.17
2019-02-26T16:01:22.760Z,19.57
2019-02-26T16:03:51.445Z,19.20
2019-02-26T16:06:20.080Z,22.48
2019-02-26T16:08:48.741Z,21.40
2019-02-26T16:11:17.448Z,23.07
2019-02-26T16:13:46.177Z,25.40
2019-02-26T16:16:14.908Z,26.13
2019-02-26T16:18:43.638Z,20.93
2019-02-26T16:21:12.288Z,27.03
2019-02-26T16:23:41.322Z,23.17
2019-02-26T16:26:10.145Z,21.07
2019-02-26T16:28:39.917Z,23.00
2019-02-26T16:31:08.883Z,21.70
2019-02-26T16:33:38.313Z,25.33
2019-02-26T16:36:07.834Z,25.07
2019-02-26T16:38:37.207Z,25.13
2019-02-26T16:41:05.999Z,23.63
2019-02-26T16:43:35.184Z,28.20
2019-02-26T16:46:12.849Z,18.43
2019-02-26T16:48:43.141Z,21.00
2019-02-26T16:51:12.317Z,25.80
2019-02-26T16:53:40.986Z,27.50
2019-02-26T16:56:13.342Z,25.77
2019-02-26T16:58:42.188Z,31.13
2019-02-26T17:01:11.221Z,19.30
2019-02-26T17:03:39.984Z,21.83
2019-02-26T17:06:08.723Z,22.53
2019-02-26T17:08:37.583Z,17.67
2019-02-26T17:11:06.220Z,23.47
2019-02-26T17:13:35.279Z,29.13
2019-02-26T17:16:03.994Z,23.70
2019-02-26T17:18:42.807Z,25.30
2019-02-26T17:21:12.215Z,26.30
2019-02-26T17:23:40.916Z,26.37
2019-02-26T17:26:09.672Z,28.60
2019-02-26T17:28:38.448Z,35.60
2019-02-26T17:31:07.121Z,20.00
2019-02-26T17:33:35.778Z,19.30
2019-02-26T17:36:05.642Z,23.40
2019-02-26T17:38:34.427Z,34.53
2019-02-26T17:41:03.177Z,26.40
2019-02-26T17:43:31.887Z,29.97
2019-02-26T17:46:00.530Z,21.20
2019-02-26T17:48:31.042Z,21.10
2019-02-26T17:50:59.727Z,20.90
2019-02-26T17:53:28.369Z,25.90
2019-02-26T17:55:57.079Z,25.50
2019-02-26T17:58:37.253Z,24.47
2019-02-26T18:01:07.514Z,21.80
2019-02-26T18:03:36.227Z,22.77
2019-02-26T18:06:05.154Z,24.53
2019-02-26T18:08:34.075Z,18.30
2019-02-26T18:11:02.715Z,22.83
2019-02-26T18:13:31.339Z,25.07
2019-02-26T18:16:08.747Z,23.60
2019-02-26T18:18:34.240Z,22.13
2019-02-26T18:21:01.065Z,29.70
2019-02-26T18:23:29.990Z,27.45
2019-02-26T18:25:58.718Z,25.87
2019-02-26T18:28:27.388Z,99.33
2019-02-26T18:30:56.124Z,87.00
2019-02-26T18:33:24.796Z,35.50
2019-02-26T18:35:53.552Z,36.15
2019-02-26T18:38:22.226Z,27.33
2019-02-26T18:40:54.281Z,27.40
2019-02-26T18:43:23.744Z,28.00
2019-02-26T18:45:52.365Z,24.07
2019-02-26T18:48:20.995Z,23.27
2019-02-26T18:50:49.713Z,20.50
2019-02-26T18:53:18.491Z,26.03
2019-02-26T18:55:47.198Z,23.75
2019-02-26T18:58:16.473Z,24.25
2019-02-26T19:00:47.472Z,22.00
2019-02-26T19:03:16.251Z,24.80
2019-02-26T19:05:44.969Z,23.90
2019-02-26T19:08:13.606Z,21.93
2019-02-26T19:10:42.329Z,22.47
2019-02-26T19:13:11.221Z,25.20
2019-02-26T19:15:40.638Z,22.23
2019-02-26T19:18:12.629Z,24.52
2019-02-26T19:20:44.289Z,25.93
2019-02-26T19:23:13.719Z,17.40
2019-02-26T19:25:42.550Z,19.27
2019-02-26T19:28:11.471Z,17.83
2019-02-26T19:30:40.197Z,31.57
2019-02-26T19:33:08.917Z,18.63
2019-02-26T19:35:40.329Z,27.00
2019-02-26T19:38:09.969Z,22.23
2019-02-26T19:40:44.511Z,27.30
2019-02-26T19:43:17.565Z,22.53
2019-02-26T19:45:46.636Z,23.80
2019-02-26T19:48:15.734Z,21.97
2019-02-26T19:50:48.583Z,20.73
2019-02-26T19:53:16.732Z,22.27
2019-02-26T19:55:49.803Z,21.50
2019-02-26T19:58:19.291Z,24.65
2019-02-26T20:00:52.746Z,23.87
2019-02-26T20:03:19.602Z,22.70
2019-02-26T20:05:48.437Z,22.37
2019-02-26T20:08:27.417Z,24.63
2019-02-26T20:10:57.716Z,23.40
2019-02-26T20:13:27.331Z,24.20
2019-02-26T20:15:56.195Z,27.80
2019-02-26T20:18:26.026Z,24.27
2019-02-26T20:20:55.399Z,26.80
2019-02-26T20:23:27.046Z,26.00
2019-02-26T20:25:55.743Z,23.70
2019-02-26T20:28:24.412Z,22.35
2019-02-26T20:30:53.307Z,23.70
2019-02-26T20:33:22.044Z,25.27
2019-02-26T20:35:50.749Z,24.97
2019-02-26T20:38:19.507Z,23.67
2019-02-26T20:40:48.930Z,21.15
2019-02-26T20:43:18.555Z,20.92
2019-02-26T20:45:48.662Z,21.67
2019-02-26T20:48:18.128Z,32.85
2019-02-26T20:50:47.136Z,22.37
2019-02-26T20:53:15.907Z,24.37
2019-02-26T20:55:52.224Z,23.70
2019-02-26T20:58:15.510Z,30.30
2019-02-26T21:00:44.487Z,24.27
2019-02-26T21:03:18.873Z,24.00
2019-02-26T21:05:48.823Z,23.57
2019-02-26T21:08:19.765Z,23.10
2019-02-26T21:10:53.155Z,25.95
2019-02-26T21:13:29.071Z,25.77
2019-02-26T21:16:06.699Z,27.50
2019-02-26T21:18:35.860Z,28.83
2019-02-26T21:21:05.578Z,25.45
2019-02-26T21:23:36.195Z,31.50
2019-02-26T21:26:05.120Z,28.37
2019-02-26T21:28:34.268Z,26.57
2019-02-26T21:31:03.732Z,28.90
2019-02-26T21:33:32.386Z,25.00
2019-02-26T21:36:01.024Z,22.23
2019-02-26T21:38:29.852Z,23.97
2019-02-26T21:40:58.580Z,27.10
2019-02-26T21:43:27.347Z,27.53
2019-02-26T21:45:55.956Z,27.13
2019-02-26T21:48:24.830Z,26.75
2019-02-26T21:50:54.834Z,25.92
2019-02-26T21:53:24.257Z,26.83
2019-02-26T21:55:53.010Z,25.30
2019-02-26T21:58:21.820Z,21.37
2019-02-26T22:00:50.534Z,28.70
2019-02-26T22:03:19.279Z,29.20
2019-02-26T22:05:47.997Z,26.63
2019-02-26T22:08:16.647Z,20.47
2019-02-26T22:10:45.342Z,20.97
2019-02-26T22:13:14.145Z,20.52
2019-02-26T22:15:44.565Z,24.27
2019-02-26T22:18:13.436Z,21.37
2019-02-26T22:20:42.173Z,26.53
2019-02-26T22:23:10.917Z,20.60
2019-02-26T22:25:39.543Z,19.83
2019-02-26T22:28:09.207Z,17.20
2019-02-26T22:30:38.603Z,17.03
2019-02-26T22:33:07.908Z,23.33
2019-02-26T22:35:38.164Z,24.93
2019-02-26T22:38:06.804Z,20.43
2019-02-26T22:40:35.633Z,21.23
2019-02-26T22:43:05.325Z,21.40
2019-02-26T22:45:33.970Z,24.23
2019-02-26T22:48:02.858Z,17.90
2019-02-26T22:50:31.571Z,20.27
2019-02-26T22:53:03.718Z,22.00
2019-02-26T22:55:30.830Z,24.90
2019-02-26T22:58:02.594Z,25.60
2019-02-26T23:00:55.362Z,23.23
2019-02-26T23:03:24.189Z,22.00
2019-02-26T23:05:53.813Z,19.77
2019-02-26T23:08:23.683Z,25.53
2019-02-26T23:10:56.948Z,22.33
2019-02-26T23:13:24.807Z,26.40
2019-02-26T23:15:54.580Z,24.63
2019-02-26T23:18:24.334Z,21.02
2019-02-26T23:20:53.119Z,24.50
2019-02-26T23:23:22.419Z,25.13
2019-02-26T23:25:51.270Z,30.47
2019-02-26T23:28:21.997Z,21.53
2019-02-26T23:30:50.551Z,26.53
2019-02-26T23:33:20.003Z,25.50
2019-02-26T23:35:49.730Z,21.33
2019-02-26T23:38:19.468Z,31.03
2019-02-26T23:40:48.054Z,24.37
2019-02-26T23:43:16.879Z,26.13
2019-02-26T23:45:45.612Z,26.27
2019-02-26T23:48:14.292Z,22.20
2019-02-26T23:50:47.110Z,28.50
2019-02-26T23:53:13.571Z,28.23
2019-02-26T23:55:46.256Z,23.80
2019-02-26T23:58:13.678Z,19.00
